createdAt,value
2018-03-30T00:02:08.909Z,13.77
2018-03-30T00:04:36.449Z,13.23
2018-03-30T00:07:07.825Z,14.77
2018-03-30T00:09:47.193Z,14.52
2018-03-30T00:12:15.481Z,13.02
2018-03-30T00:14:42.998Z,13.62
2018-03-30T00:17:10.518Z,15.15
2018-03-30T00:19:38.016Z,14.40
2018-03-30T00:22:05.529Z,13.15
2018-03-30T00:24:33.043Z,13.45
2018-03-30T00:27:00.771Z,14.15
2018-03-30T00:29:28.290Z,12.88
2018-03-30T00:31:56.631Z,13.07
2018-03-30T00:34:24.161Z,14.95
2018-03-30T00:36:51.842Z,13.95
2018-03-30T00:39:19.358Z,14.82
2018-03-30T00:41:46.887Z,16.08
2018-03-30T00:44:14.444Z,14.60
2018-03-30T00:46:41.961Z,15.50
2018-03-30T00:49:09.488Z,16.00
2018-03-30T00:51:37.050Z,15.45
2018-03-30T00:54:04.569Z,16.60
2018-03-30T00:56:32.898Z,17.12
2018-03-30T00:59:00.523Z,17.80
2018-03-30T01:01:28.920Z,17.85
2018-03-30T01:03:57.199Z,19.83
2018-03-30T01:06:24.740Z,14.82
2018-03-30T01:08:52.284Z,18.70
2018-03-30T01:11:19.811Z,17.87
2018-03-30T01:13:47.343Z,19.10
2018-03-30T01:16:14.855Z,20.15
2018-03-30T01:18:42.374Z,18.27
2018-03-30T01:21:09.899Z,19.80
2018-03-30T01:23:37.403Z,17.33
2018-03-30T01:26:04.920Z,16.98
2018-03-30T01:28:33.202Z,18.35
2018-03-30T01:31:01.476Z,15.60
2018-03-30T01:33:29.786Z,19.60
2018-03-30T01:35:57.328Z,19.83
2018-03-30T01:38:24.907Z,20.83
2018-03-30T01:40:52.431Z,19.10
2018-03-30T01:43:19.967Z,20.85
2018-03-30T01:45:47.522Z,20.77
2018-03-30T01:48:15.020Z,19.85
2018-03-30T01:50:42.534Z,19.35
2018-03-30T01:53:10.066Z,19.02
2018-03-30T01:55:37.572Z,20.73
2018-03-30T01:58:05.090Z,19.15
2018-03-30T02:00:32.600Z,20.73
2018-03-30T02:03:00.117Z,21.52
2018-03-30T02:05:27.635Z,18.48
2018-03-30T02:07:55.150Z,18.65
2018-03-30T02:10:22.720Z,20.15
2018-03-30T02:12:50.259Z,21.20
2018-03-30T02:15:17.774Z,20.10
2018-03-30T02:17:46.044Z,21.05
2018-03-30T02:20:14.315Z,23.92
2018-03-30T02:22:41.820Z,22.00
2018-03-30T02:25:09.343Z,22.87
2018-03-30T02:27:36.858Z,21.85
2018-03-30T02:30:04.384Z,22.15
2018-03-30T02:32:31.923Z,21.27
2018-03-30T02:34:59.441Z,22.52
2018-03-30T02:37:26.966Z,19.75
2018-03-30T02:39:54.486Z,22.25
2018-03-30T02:42:22.009Z,21.73
2018-03-30T02:44:49.559Z,20.40
2018-03-30T02:47:17.065Z,23.00
2018-03-30T02:49:44.599Z,21.73
2018-03-30T02:52:12.108Z,22.52
2018-03-30T02:54:39.634Z,24.95
2018-03-30T02:57:07.153Z,23.05
2018-03-30T02:59:34.680Z,23.90
2018-03-30T03:02:02.942Z,21.77
2018-03-30T03:04:31.211Z,22.45
2018-03-30T03:06:58.745Z,23.83
2018-03-30T03:09:26.258Z,23.12
2018-03-30T03:11:53.779Z,24.33
2018-03-30T03:14:21.292Z,24.48
2018-03-30T03:16:48.794Z,23.60
2018-03-30T03:19:16.320Z,24.73
2018-03-30T03:21:43.820Z,25.48
2018-03-30T03:24:11.330Z,22.42
2018-03-30T03:26:38.847Z,25.05
2018-03-30T03:29:06.356Z,25.08
